Time,TemperatureF,DewpointF,PressureIn,WindDirection,WindDirectionDegrees,WindSpeedMPH,WindSpeedGustMPH,Humidity,HourlyPrecipIn,Conditions,Clouds,dailyrainin,SoftwareType,DateUTC
2013-10-03 00:00:00,50.4,49.0,30.09,SSE,158,0.0,0.0,95,0.00,CLR,,0.00,WeatherDisplay:10.37,2013-10-03 04:00:00,
2013-10-03 00:01:00,50.4,49.0,30.09,ESE,112,0.0,0.0,95,0.00,CLR,,0.00,WeatherDisplay:10.37,2013-10-03 04:01:00,
2013-10-03 00:02:00,50.4,49.0,30.09,SSE,158,0.0,0.0,95,0.00,CLR,,0.00,WeatherDisplay:10.37,2013-10-03 04:02:00,
2013-10-03 00:07:00,50.2,48.8,30.09,SSE,158,0.0,0.0,95,0.00,CLR,,0.00,WeatherDisplay:10.37,2013-10-03 04:07:00,
2013-10-03 00:12:00,50.0,48.6,30.09,SSE,158,0.0,0.0,95,0.00,CLR,,0.00,WeatherDisplay:10.37,2013-10-03 04:12:00,
2013-10-03 00:17:00,49.8,48.4,30.09,SE,135,0.0,0.0,95,0.00,CLR,,0.00,WeatherDisplay:10.37,2013-10-03 04:17:00,
2013-10-03 00:22:00,49.5,48.1,30.09,South,180,0.0,0.0,95,0.00,CLR,,0.00,WeatherDisplay:10.37,2013-10-03 04:22:00,
2013-10-03 00:28:00,49.3,47.9,30.09,SSE,158,0.0,0.0,95,0.00,CLR,,0.00,WeatherDisplay:10.37,2013-10-03 04:28:00,
2013-10-03 00:33:00,49.1,47.7,30.09,SSE,158,0.0,0.0,95,0.00,CLR,,0.00,WeatherDisplay:10.37,2013-10-03 04:33:00,
2013-10-03 00:38:00,48.7,47.3,30.09,SE,135,0.0,0.0,95,0.00,CLR,,0.00,WeatherDisplay:10.37,2013-10-03 04:38:00,
2013-10-03 00:43:00,48.6,47.2,30.09,SSE,158,0.0,0.0,95,0.00,CLR,,0.00,WeatherDisplay:10.37,2013-10-03 04:43:00,
2013-10-03 00:48:00,48.6,47.2,30.09,SSE,158,0.0,0.0,95,0.00,CLR,,0.00,WeatherDisplay:10.37,2013-10-03 04:48:00,
2013-10-03 00:53:00,48.2,46.8,30.09,SE,135,0.0,0.0,95,0.00,CLR,,0.00,WeatherDisplay:10.37,2013-10-03 04:53:00,
2013-10-03 00:58:00,48.0,46.6,30.09,ESE,112,0.0,0.0,95,0.00,CLR,,0.00,WeatherDisplay:10.37,2013-10-03 04:58:00,
2013-10-03 01:03:00,47.8,46.4,30.09,SSE,158,0.0,0.0,95,0.00,FEW,,0.00,WeatherDisplay:10.37,2013-10-03 05:03:00,
2013-10-03 01:08:00,47.8,46.4,30.09,SSE,158,0.0,0.0,95,0.00,FEW,,0.00,WeatherDisplay:10.37,2013-10-03 05:08:00,
2013-10-03 01:13:00,48.0,46.6,30.09,SSE,158,0.0,0.0,95,0.00,FEW,,0.00,WeatherDisplay:10.37,2013-10-03 05:13:00,
2013-10-03 01:18:00,47.8,46.4,30.09,SSE,158,0.0,0.0,95,0.00,FEW,,0.00,WeatherDisplay:10.37,2013-10-03 05:18:00,
2013-10-03 01:23:00,47.8,46.4,30.09,SSE,158,0.0,0.0,95,0.00,FEW,,0.00,WeatherDisplay:10.37,2013-10-03 05:23:00,
2013-10-03 01:28:00,47.7,46.3,30.10,ESE,112,1.4,1.4,95,0.00,FEW,,0.00,WeatherDisplay:10.37,2013-10-03 05:28:00,
2013-10-03 01:33:00,47.7,46.3,30.10,SSE,158,0.0,0.0,95,0.00,FEW,,0.00,WeatherDisplay:10.37,2013-10-03 05:33:00,
2013-10-03 01:38:00,47.5,46.1,30.10,ESE,112,0.8,1.1,95,0.00,FEW,,0.00,WeatherDisplay:10.37,2013-10-03 05:38:00,
2013-10-03 01:43:00,47.5,46.1,30.09,SSE,158,0.5,1.1,95,0.00,FEW,,0.00,WeatherDisplay:10.37,2013-10-03 05:43:00,
2013-10-03 01:48:00,47.3,45.9,30.09,SSE,158,0.0,0.0,95,0.00,FEW,,0.00,WeatherDisplay:10.37,2013-10-03 05:48:00,
2013-10-03 01:53:00,47.1,45.7,30.09,SSE,158,0.0,0.0,95,0.00,FEW,,0.00,WeatherDisplay:10.37,2013-10-03 05:53:00,
2013-10-03 01:58:00,46.8,45.4,30.09,SSE,158,0.0,0.0,95,0.00,FEW,,0.00,WeatherDisplay:10.37,2013-10-03 05:58:00,
2013-10-03 02:03:00,46.6,45.2,30.09,SSE,158,0.0,0.0,95,0.00,FEW,,0.00,WeatherDisplay:10.37,2013-10-03 06:03:00,
2013-10-03 02:08:00,46.2,44.8,30.09,SSE,158,0.0,0.0,95,0.00,FEW,,0.00,WeatherDisplay:10.37,2013-10-03 06:08:00,
2013-10-03 02:13:00,46.0,44.6,30.09,SSE,158,0.0,0.0,95,0.00,FEW,,0.00,WeatherDisplay:10.37,2013-10-03 06:13:00,
2013-10-03 02:18:00,46.0,44.6,30.10,SSE,158,0.0,0.0,95,0.00,FEW,,0.00,WeatherDisplay:10.37,2013-10-03 06:18:00,
2013-10-03 02:23:00,46.0,44.6,30.10,SSE,158,0.0,0.0,95,0.00,FEW,,0.00,WeatherDisplay:10.37,2013-10-03 06:23:00,
2013-10-03 02:28:00,45.9,44.5,30.10,SE,135,0.0,0.0,95,0.00,FEW,,0.00,WeatherDisplay:10.37,2013-10-03 06:28:00,
2013-10-03 02:33:00,45.9,44.5,30.10,SSE,158,0.0,0.0,95,0.00,FEW,,0.00,WeatherDisplay:10.37,2013-10-03 06:33:00,
2013-10-03 02:38:00,45.9,44.5,30.09,SSE,158,0.0,0.0,95,0.00,FEW,,0.00,WeatherDisplay:10.37,2013-10-03 06:38:00,
2013-10-03 02:43:00,45.9,44.5,30.09,SSE,158,0.0,0.0,95,0.00,FEW,,0.00,WeatherDisplay:10.37,2013-10-03 06:43:00,
2013-10-03 02:48:00,46.2,44.8,30.09,SSE,158,0.0,0.0,95,0.00,FEW,,0.00,WeatherDisplay:10.37,2013-10-03 06:48:00,
2013-10-03 02:53:00,46.0,44.6,30.09,SE,135,0.0,0.0,95,0.00,FEW,,0.00,WeatherDisplay:10.37,2013-10-03 06:53:00,
2013-10-03 02:58:00,46.0,44.6,30.09,SSE,158,0.0,0.0,95,0.00,FEW,,0.00,WeatherDisplay:10.37,2013-10-03 06:58:00,
2013-10-03 03:03:00,45.9,44.5,30.09,SSE,158,0.0,0.0,95,0.00,SCT,,0.00,WeatherDisplay:10.37,2013-10-03 07:03:00,
2013-10-03 03:08:00,45.7,44.4,30.09,SSE,158,0.0,0.0,95,0.00,SCT,,0.00,WeatherDisplay:10.37,2013-10-03 07:08:00,
2013-10-03 03:13:00,45.5,44.2,30.09,SSE,158,0.0,0.0,95,0.00,SCT,,0.00,WeatherDisplay:10.37,2013-10-03 07:13:00,
2013-10-03 03:18:00,45.5,44.2,30.09,ESE,112,0.0,0.0,95,0.00,SCT,,0.00,WeatherDisplay:10.37,2013-10-03 07:18:00,
2013-10-03 03:23:00,45.5,44.2,30.09,SSE,158,0.0,0.0,95,0.00,SCT,,0.00,WeatherDisplay:10.37,2013-10-03 07:23:00,
2013-10-03 03:28:00,45.5,44.2,30.09,ESE,112,0.0,0.0,95,0.00,SCT,,0.00,WeatherDisplay:10.37,2013-10-03 07:28:00,
2013-10-03 03:33:00,45.5,44.2,30.09,SE,135,0.0,0.0,95,0.00,SCT,,0.00,WeatherDisplay:10.37,2013-10-03 07:33:00,
2013-10-03 03:38:00,45.5,44.2,30.09,SSE,158,0.0,0.0,95,0.00,SCT,,0.00,WeatherDisplay:10.37,2013-10-03 07:38:00,
2013-10-03 03:43:00,45.5,44.2,30.09,South,180,0.0,0.0,95,0.00,SCT,,0.00,WeatherDisplay:10.37,2013-10-03 07:43:00,
2013-10-03 03:48:00,45.9,44.5,30.09,SSE,158,1.5,1.5,95,0.00,SCT,,0.00,WeatherDisplay:10.37,2013-10-03 07:48:00,
2013-10-03 03:53:00,46.4,45.0,30.09,ESE,112,0.4,1.7,95,0.00,SCT,,0.00,WeatherDisplay:10.37,2013-10-03 07:53:00,
2013-10-03 03:58:00,46.6,45.2,30.09,SSE,158,0.0,0.0,95,0.00,SCT,,0.00,WeatherDisplay:10.37,2013-10-03 07:58:00,
2013-10-03 04:03:00,47.1,45.7,30.09,SSE,158,2.0,2.3,95,0.00,BKN,,0.00,WeatherDisplay:10.37,2013-10-03 08:03:00,
2013-10-03 04:08:00,47.5,46.1,30.09,South,180,1.1,1.1,95,0.00,BKN,,0.00,WeatherDisplay:10.37,2013-10-03 08:08:00,
2013-10-03 04:13:00,47.7,46.3,30.09,ESE,112,1.6,2.3,95,0.00,BKN,,0.00,WeatherDisplay:10.37,2013-10-03 08:13:00,
2013-10-03 04:18:00,47.5,46.1,30.09,SE,135,0.4,1.1,95,0.00,BKN,,0.00,WeatherDisplay:10.37,2013-10-03 08:18:00,
2013-10-03 04:23:00,47.3,45.9,30.09,SSE,158,0.2,1.1,95,0.00,BKN,,0.00,WeatherDisplay:10.37,2013-10-03 08:23:00,
2013-10-03 04:28:00,47.1,45.7,30.09,SE,135,0.0,0.0,95,0.00,BKN,,0.00,WeatherDisplay:10.37,2013-10-03 08:28:00,
2013-10-03 04:33:00,47.1,45.7,30.09,SSE,158,0.0,0.0,95,0.00,BKN,,0.00,WeatherDisplay:10.37,2013-10-03 08:33:00,
2013-10-03 04:38:00,46.9,45.5,30.09,SE,135,0.3,1.1,95,0.00,BKN,,0.00,WeatherDisplay:10.37,2013-10-03 08:38:00,
2013-10-03 04:43:00,46.9,45.5,30.09,South,180,0.0,0.0,95,0.00,BKN,,0.00,WeatherDisplay:10.37,2013-10-03 08:43:00,
2013-10-03 04:48:00,46.9,45.5,30.09,South,180,0.0,0.0,95,0.00,BKN,,0.00,WeatherDisplay:10.37,2013-10-03 08:48:00,
2013-10-03 04:53:00,46.8,45.4,30.09,South,180,0.0,0.0,95,0.00,BKN,,0.00,WeatherDisplay:10.37,2013-10-03 08:53:00,
2013-10-03 04:58:00,46.6,45.2,30.09,SSE,158,0.0,0.0,95,0.00,BKN,,0.00,WeatherDisplay:10.37,2013-10-03 08:58:00,
2013-10-03 05:03:00,46.4,45.0,30.09,SSE,158,0.0,0.0,95,0.00,BKN,,0.00,WeatherDisplay:10.37,2013-10-03 09:03:00,
2013-10-03 05:08:00,46.2,44.8,30.09,South,180,0.0,0.0,95,0.00,BKN,,0.00,WeatherDisplay:10.37,2013-10-03 09:08:00,
2013-10-03 05:13:00,45.9,44.5,30.09,SE,135,0.0,0.0,95,0.00,BKN,,0.00,WeatherDisplay:10.37,2013-10-03 09:13:00,
2013-10-03 05:18:00,45.7,44.4,30.10,SE,135,0.0,0.0,95,0.00,BKN,,0.00,WeatherDisplay:10.37,2013-10-03 09:18:00,
2013-10-03 05:23:00,45.9,44.5,30.10,SE,135,1.4,1.7,95,0.00,BKN,,0.00,WeatherDisplay:10.37,2013-10-03 09:23:00,
2013-10-03 05:28:00,45.9,44.5,30.09,SSE,158,0.0,0.0,95,0.00,BKN,,0.00,WeatherDisplay:10.37,2013-10-03 09:28:00,
2013-10-03 05:33:00,45.9,44.5,30.09,SE,135,0.0,0.0,95,0.00,BKN,,0.00,WeatherDisplay:10.37,2013-10-03 09:33:00,
2013-10-03 05:38:00,45.9,44.5,30.09,SSE,158,0.0,0.0,95,0.00,BKN,,0.00,WeatherDisplay:10.37,2013-10-03 09:38:00,
2013-10-03 05:43:00,45.9,44.5,30.10,South,180,0.0,0.0,95,0.00,BKN,,0.00,WeatherDisplay:10.37,2013-10-03 09:43:00,
2013-10-03 05:48:00,45.9,44.5,30.10,SSW,202,0.0,0.0,95,0.00,BKN,,0.00,WeatherDisplay:10.37,2013-10-03 09:48:00,
2013-10-03 05:53:00,45.5,44.2,30.10,South,180,0.0,0.0,95,0.00,BKN,,0.00,WeatherDisplay:10.37,2013-10-03 09:53:00,
2013-10-03 05:58:00,45.1,43.8,30.10,SE,135,0.0,0.0,95,0.00,BKN,,0.00,WeatherDisplay:10.37,2013-10-03 09:58:00,
2013-10-03 06:03:00,45.3,44.0,30.10,SE,135,0.0,0.0,95,0.00,BKN,,0.00,WeatherDisplay:10.37,2013-10-03 10:03:00,
2013-10-03 06:08:00,45.3,44.0,30.10,SSE,158,0.0,0.0,95,0.00,BKN,,0.00,WeatherDisplay:10.37,2013-10-03 10:08:00,
2013-10-03 06:13:00,45.3,44.0,30.10,South,180,0.0,0.0,95,0.00,BKN,,0.00,WeatherDisplay:10.37,2013-10-03 10:13:00,
2013-10-03 06:18:00,45.0,43.7,30.10,SE,135,0.0,0.0,95,0.00,BKN,,0.00,WeatherDisplay:10.37,2013-10-03 10:18:00,
2013-10-03 06:23:00,44.8,43.5,30.10,SE,135,0.0,0.0,95,0.00,BKN,,0.00,WeatherDisplay:10.37,2013-10-03 10:23:00,
2013-10-03 06:28:00,44.6,43.3,30.11,SSE,158,0.0,0.0,95,0.00,BKN,,0.00,WeatherDisplay:10.37,2013-10-03 10:28:00,
2013-10-03 06:33:00,44.2,42.9,30.11,South,180,0.0,0.0,95,0.00,BKN,,0.00,WeatherDisplay:10.37,2013-10-03 10:33:00,
2013-10-03 06:38:00,44.2,42.9,30.10,South,180,0.0,0.0,95,0.00,BKN,,0.00,WeatherDisplay:10.37,2013-10-03 10:38:00,
2013-10-03 06:43:00,44.1,42.8,30.10,South,180,0.0,0.0,95,0.00,BKN,,0.00,WeatherDisplay:10.37,2013-10-03 10:43:00,
2013-10-03 06:48:00,43.9,42.6,30.10,SSE,158,0.0,0.0,95,0.00,BKN,,0.00,WeatherDisplay:10.37,2013-10-03 10:48:00,
2013-10-03 06:53:00,43.7,42.4,30.10,South,180,0.0,0.0,95,0.00,BKN,,0.00,WeatherDisplay:10.37,2013-10-03 10:53:00,
2013-10-03 06:58:00,43.7,42.4,30.10,SE,135,0.0,0.0,95,0.00,BKN,,0.00,WeatherDisplay:10.37,2013-10-03 10:58:00,
2013-10-03 07:03:00,44.4,43.1,30.11,SE,135,0.0,0.0,95,0.00,BKN,,0.00,WeatherDisplay:10.37,2013-10-03 11:03:00,
2013-10-03 07:08:00,44.6,43.3,30.11,SE,135,0.0,0.0,95,0.00,BKN,,0.00,WeatherDisplay:10.37,2013-10-03 11:08:00,
2013-10-03 07:13:00,44.8,43.5,30.11,SE,135,0.0,0.0,95,0.00,BKN,,0.00,WeatherDisplay:10.37,2013-10-03 11:13:00,
2013-10-03 07:18:00,44.8,43.5,30.11,SE,135,0.0,0.0,95,0.00,BKN,,0.00,WeatherDisplay:10.37,2013-10-03 11:18:00,
2013-10-03 07:23:00,44.8,43.5,30.11,SE,135,0.0,0.0,95,0.00,BKN,,0.00,WeatherDisplay:10.37,2013-10-03 11:23:00,
2013-10-03 07:28:00,44.8,43.5,30.11,SE,135,0.0,0.0,95,0.00,BKN,,0.00,WeatherDisplay:10.37,2013-10-03 11:28:00,
2013-10-03 07:33:00,45.1,43.8,30.11,SSE,158,0.0,0.0,95,0.00,BKN,,0.00,WeatherDisplay:10.37,2013-10-03 11:33:00,
2013-10-03 07:38:00,46.2,44.8,30.11,SE,135,0.5,1.1,95,0.00,BKN,,0.00,WeatherDisplay:10.37,2013-10-03 11:38:00,
2013-10-03 07:43:00,46.9,45.5,30.11,ESE,112,0.0,0.0,95,0.00,BKN,,0.00,WeatherDisplay:10.37,2013-10-03 11:43:00,
2013-10-03 07:48:00,47.8,46.4,30.11,SE,135,2.1,2.3,95,0.00,BKN,,0.00,WeatherDisplay:10.37,2013-10-03 11:48:00,
2013-10-03 07:53:00,48.6,47.2,30.11,SSE,158,2.2,2.7,95,0.00,BKN,,0.00,WeatherDisplay:10.37,2013-10-03 11:53:00,
2013-10-03 07:58:00,49.3,47.9,30.11,South,180,1.9,2.3,95,0.00,BKN,,0.00,WeatherDisplay:10.37,2013-10-03 11:58:00,
2013-10-03 08:03:00,49.8,48.4,30.11,ESE,112,3.2,3.5,95,0.00,BKN,,0.00,WeatherDisplay:10.37,2013-10-03 12:03:00,
2013-10-03 08:08:00,50.5,49.1,30.11,South,180,3.0,3.5,95,0.00,BKN,,0.00,WeatherDisplay:10.37,2013-10-03 12:08:00,
2013-10-03 08:13:00,50.5,49.1,30.11,South,180,2.2,2.3,95,0.00,BKN,,0.00,WeatherDisplay:10.37,2013-10-03 12:13:00,
2013-10-03 08:18:00,50.7,49.3,30.12,SE,135,1.5,3.5,95,0.00,BKN,,0.00,WeatherDisplay:10.37,2013-10-03 12:18:00,
2013-10-03 08:23:00,50.9,49.5,30.12,SE,135,2.9,3.5,95,0.00,BKN,,0.00,WeatherDisplay:10.37,2013-10-03 12:23:00,
2013-10-03 08:28:00,50.5,49.1,30.12,SSE,158,2.5,2.7,95,0.00,BKN,,0.00,WeatherDisplay:10.37,2013-10-03 12:28:00,
2013-10-03 08:33:00,51.6,50.2,30.12,SSE,158,2.0,3.5,95,0.00,BKN,,0.00,WeatherDisplay:10.37,2013-10-03 12:33:00,
2013-10-03 08:38:00,52.7,51.3,30.12,South,180,2.2,3.7,95,0.00,BKN,,0.00,WeatherDisplay:10.37,2013-10-03 12:38:00,
2013-10-03 08:43:00,53.8,51.5,30.12,SE,135,3.9,4.6,92,0.00,BKN,,0.00,WeatherDisplay:10.37,2013-10-03 12:43:00,
2013-10-03 08:48:00,54.3,51.1,30.12,SSE,158,4.2,4.7,89,0.00,BKN,,0.00,WeatherDisplay:10.37,2013-10-03 12:48:00,
2013-10-03 08:53:00,55.2,51.4,30.12,SSE,158,3.6,4.6,87,0.00,BKN,,0.00,WeatherDisplay:10.37,2013-10-03 12:53:00,
2013-10-03 08:58:00,55.8,51.4,30.12,SSE,158,3.5,4.6,85,0.00,BKN,,0.00,WeatherDisplay:10.37,2013-10-03 12:58:00,
2013-10-03 09:03:00,55.9,50.8,30.12,South,180,3.9,4.7,83,0.00,SCT,,0.00,WeatherDisplay:10.37,2013-10-03 13:03:00,
2013-10-03 09:08:00,55.9,50.8,30.12,SE,135,4.2,4.6,83,0.00,SCT,,0.00,WeatherDisplay:10.37,2013-10-03 13:08:00,
2013-10-03 09:13:00,57.2,51.4,30.12,SSE,158,3.0,3.7,81,0.00,SCT,,0.00,WeatherDisplay:10.37,2013-10-03 13:13:00,
2013-10-03 09:18:00,57.9,51.8,30.12,SSE,158,3.1,4.6,80,0.00,SCT,,0.00,WeatherDisplay:10.37,2013-10-03 13:18:00,
2013-10-03 09:23:00,58.5,51.7,30.12,South,180,3.0,3.5,78,0.00,SCT,,0.00,WeatherDisplay:10.37,2013-10-03 13:23:00,
2013-10-03 09:28:00,59.5,51.6,30.12,SSE,158,3.7,4.6,75,0.00,SCT,,0.00,WeatherDisplay:10.37,2013-10-03 13:28:00,
2013-10-03 09:33:00,60.8,52.1,30.12,SSE,158,2.6,3.5,73,0.00,SCT,,0.00,WeatherDisplay:10.37,2013-10-03 13:33:00,
2013-10-03 09:38:00,61.9,52.0,30.11,SSE,158,2.8,3.7,70,0.00,SCT,,0.00,WeatherDisplay:10.37,2013-10-03 13:38:00,
2013-10-03 09:43:00,64.0,52.4,30.11,ESE,112,2.4,3.5,66,0.00,SCT,,0.00,WeatherDisplay:10.37,2013-10-03 13:43:00,
2013-10-03 09:48:00,64.8,52.3,30.11,SSE,158,2.7,3.5,64,0.00,SCT,,0.00,WeatherDisplay:10.37,2013-10-03 13:48:00,
2013-10-03 09:53:00,65.3,52.4,30.11,East,90,2.5,3.2,63,0.00,SCT,,0.00,WeatherDisplay:10.37,2013-10-03 13:53:00,
2013-10-03 09:58:00,65.1,51.8,30.11,SSE,158,2.7,3.5,62,0.00,SCT,,0.00,WeatherDisplay:10.37,2013-10-03 13:58:00,
2013-10-03 10:03:00,65.8,52.0,30.11,ESE,112,3.5,4.6,61,0.00,SCT,,0.00,WeatherDisplay:10.37,2013-10-03 14:03:00,
2013-10-03 10:08:00,66.9,52.1,30.11,ESE,112,2.7,3.2,59,0.00,SCT,,0.00,WeatherDisplay:10.37,2013-10-03 14:08:00,
2013-10-03 10:13:00,67.8,52.5,30.11,ESE,112,2.8,3.5,58,0.00,SCT,,0.00,WeatherDisplay:10.37,2013-10-03 14:13:00,
2013-10-03 10:18:00,69.1,51.2,30.11,SE,135,3.2,4.6,53,0.00,SCT,,0.00,WeatherDisplay:10.37,2013-10-03 14:18:00,
2013-10-03 10:23:00,69.1,51.8,30.11,SE,135,2.9,4.6,54,0.00,SCT,,0.00,WeatherDisplay:10.37,2013-10-03 14:23:00,
2013-10-03 10:28:00,69.6,51.2,30.11,SSE,158,0.8,1.1,52,0.00,SCT,,0.00,WeatherDisplay:10.37,2013-10-03 14:28:00,
2013-10-03 10:33:00,69.1,50.7,30.11,WSW,248,0.5,2.3,52,0.00,SCT,,0.00,WeatherDisplay:10.37,2013-10-03 14:33:00,
2013-10-03 10:38:00,69.6,50.7,30.11,WSW,248,2.6,3.7,51,0.00,SCT,,0.00,WeatherDisplay:10.37,2013-10-03 14:38:00,
2013-10-03 10:43:00,70.7,51.1,30.11,South,180,3.3,3.7,50,0.00,SCT,,0.00,WeatherDisplay:10.37,2013-10-03 14:43:00,
2013-10-03 10:48:00,71.1,49.3,30.11,SSE,158,4.7,4.7,46,0.00,SCT,,0.00,WeatherDisplay:10.37,2013-10-03 14:48:00,
2013-10-03 10:53:00,71.4,47.7,30.10,SE,135,3.2,4.7,43,0.00,SCT,,0.00,WeatherDisplay:10.37,2013-10-03 14:53:00,
2013-10-03 10:58:00,72.0,47.0,30.10,SE,135,2.5,3.5,41,0.00,SCT,,0.00,WeatherDisplay:10.37,2013-10-03 14:58:00,
2013-10-03 11:03:00,73.8,48.6,30.10,ESE,112,3.1,3.7,41,0.00,BKN,,0.00,WeatherDisplay:10.37,2013-10-03 15:03:00,
2013-10-03 11:08:00,73.9,48.1,30.10,SE,135,3.0,3.5,40,0.00,BKN,,0.00,WeatherDisplay:10.37,2013-10-03 15:08:00,
2013-10-03 11:13:00,74.3,46.3,30.10,SE,135,3.3,4.6,37,0.00,BKN,,0.00,WeatherDisplay:10.37,2013-10-03 15:13:00,
2013-10-03 11:18:00,73.6,46.4,30.09,SW,225,1.3,3.5,38,0.00,BKN,,0.00,WeatherDisplay:10.37,2013-10-03 15:18:00,
2013-10-03 11:23:00,74.5,47.2,30.09,ESE,112,3.9,4.6,38,0.00,BKN,,0.00,WeatherDisplay:10.37,2013-10-03 15:23:00,
2013-10-03 11:28:00,75.4,45.8,30.09,NE,45,0.9,3.5,35,0.00,BKN,,0.00,WeatherDisplay:10.37,2013-10-03 15:28:00,
2013-10-03 11:33:00,73.6,45.0,30.09,ESE,112,4.1,4.6,36,0.00,BKN,,0.00,WeatherDisplay:10.37,2013-10-03 15:33:00,
2013-10-03 11:38:00,74.8,43.0,30.09,East,90,2.6,5.8,32,0.00,BKN,,0.00,WeatherDisplay:10.37,2013-10-03 15:38:00,
2013-10-03 11:43:00,74.8,43.0,30.09,West,270,3.2,3.5,32,0.00,BKN,,0.00,WeatherDisplay:10.37,2013-10-03 15:43:00,
2013-10-03 11:48:00,74.8,40.4,30.09,ESE,112,4.8,5.8,29,0.00,BKN,,0.00,WeatherDisplay:10.37,2013-10-03 15:48:00,
2013-10-03 11:53:00,72.5,41.0,30.08,SE,135,4.4,4.7,32,0.00,BKN,,0.00,WeatherDisplay:10.37,2013-10-03 15:53:00,
2013-10-03 11:58:00,73.0,40.6,30.08,SE,135,4.1,5.8,31,0.00,BKN,,0.00,WeatherDisplay:10.37,2013-10-03 15:58:00,
2013-10-03 12:03:00,75.0,41.5,30.08,ESE,112,3.6,4.6,30,0.00,BKN,,0.00,WeatherDisplay:10.37,2013-10-03 16:03:00,
2013-10-03 12:08:00,75.4,41.8,30.08,SSE,158,3.6,4.6,30,0.00,BKN,,0.00,WeatherDisplay:10.37,2013-10-03 16:08:00,
2013-10-03 12:13:00,76.5,41.9,30.08,SSE,158,3.8,4.6,29,0.00,BKN,,0.00,WeatherDisplay:10.37,2013-10-03 16:13:00,
2013-10-03 12:18:00,76.1,40.6,30.08,NE,45,3.6,4.6,28,0.00,BKN,,0.00,WeatherDisplay:10.37,2013-10-03 16:18:00,
2013-10-03 12:23:00,75.6,42.0,30.08,ESE,112,2.6,4.7,30,0.00,BKN,,0.00,WeatherDisplay:10.37,2013-10-03 16:23:00,
2013-10-03 12:28:00,75.2,42.5,30.07,SE,135,2.1,2.7,31,0.00,BKN,,0.00,WeatherDisplay:10.37,2013-10-03 16:28:00,
2013-10-03 12:33:00,76.6,42.0,30.07,NNW,338,0.4,1.7,29,0.00,BKN,,0.00,WeatherDisplay:10.37,2013-10-03 16:33:00,
2013-10-03 12:38:00,76.3,41.7,30.07,SE,135,3.9,5.8,29,0.00,BKN,,0.00,WeatherDisplay:10.37,2013-10-03 16:38:00,
2013-10-03 12:43:00,75.2,41.6,30.07,SSW,202,1.2,2.3,30,0.00,BKN,,0.00,WeatherDisplay:10.37,2013-10-03 16:43:00,
2013-10-03 12:48:00,75.7,40.3,30.07,South,180,3.4,5.3,28,0.00,BKN,,0.00,WeatherDisplay:10.37,2013-10-03 16:48:00,
2013-10-03 12:53:00,75.2,40.7,30.07,SSE,158,2.7,3.2,29,0.00,BKN,,0.00,WeatherDisplay:10.37,2013-10-03 16:53:00,
2013-10-03 12:58:00,76.1,40.6,30.07,East,90,2.0,3.7,28,0.00,BKN,,0.00,WeatherDisplay:10.37,2013-10-03 16:58:00,
2013-10-03 13:03:00,76.3,37.9,30.06,ESE,112,0.0,0.0,25,0.00,BKN,,0.00,WeatherDisplay:10.37,2013-10-03 17:03:00,
2013-10-03 13:08:00,75.6,41.1,30.06,ESE,112,2.3,2.3,29,0.00,BKN,,0.00,WeatherDisplay:10.37,2013-10-03 17:08:00,
2013-10-03 13:13:00,74.7,40.3,30.06,SE,135,2.5,2.5,29,0.00,BKN,,0.00,WeatherDisplay:10.37,2013-10-03 17:13:00,
2013-10-03 13:18:00,74.3,40.0,30.06,ENE,68,1.9,2.3,29,0.00,BKN,,0.00,WeatherDisplay:10.37,2013-10-03 17:18:00,
2013-10-03 13:23:00,73.9,41.3,30.06,South,180,0.0,0.0,31,0.00,BKN,,0.00,WeatherDisplay:10.37,2013-10-03 17:23:00,
2013-10-03 13:28:00,73.9,42.2,30.06,East,90,0.0,0.0,32,0.00,BKN,,0.00,WeatherDisplay:10.37,2013-10-03 17:28:00,
2013-10-03 13:33:00,73.6,41.1,30.06,East,90,0.0,0.0,31,0.00,BKN,,0.00,WeatherDisplay:10.37,2013-10-03 17:33:00,
2013-10-03 13:38:00,73.2,42.4,30.05,ESE,112,0.7,1.1,33,0.00,BKN,,0.00,WeatherDisplay:10.37,2013-10-03 17:38:00,
2013-10-03 13:43:00,72.9,42.1,30.05,ESE,112,2.1,2.3,33,0.00,BKN,,0.00,WeatherDisplay:10.37,2013-10-03 17:43:00,
2013-10-03 13:48:00,72.5,44.0,30.05,NE,45,0.0,0.0,36,0.00,BKN,,0.00,WeatherDisplay:10.37,2013-10-03 17:48:00,
2013-10-03 13:53:00,73.4,43.3,30.04,East,90,1.6,1.7,34,0.00,BKN,,0.00,WeatherDisplay:10.37,2013-10-03 17:53:00,
2013-10-03 13:58:00,73.4,42.5,30.04,NNE,22,1.8,3.5,33,0.00,BKN,,0.00,WeatherDisplay:10.37,2013-10-03 17:58:00,
2013-10-03 14:03:00,73.8,43.7,30.03,ESE,112,2.0,2.7,34,0.00,BKN,,0.00,WeatherDisplay:10.37,2013-10-03 18:03:00,
2013-10-03 14:08:00,73.4,41.7,30.03,ENE,68,2.2,2.7,32,0.00,BKN,,0.00,WeatherDisplay:10.37,2013-10-03 18:08:00,
2013-10-03 14:13:00,73.6,43.5,30.03,SE,135,1.0,2.3,34,0.00,BKN,,0.00,WeatherDisplay:10.37,2013-10-03 18:13:00,
2013-10-03 14:18:00,73.8,42.9,30.03,East,90,2.3,2.3,33,0.00,BKN,,0.00,WeatherDisplay:10.37,2013-10-03 18:18:00,
2013-10-03 14:23:00,73.2,43.1,30.03,ENE,68,3.5,4.2,34,0.00,BKN,,0.00,WeatherDisplay:10.37,2013-10-03 18:23:00,
2013-10-03 14:28:00,72.5,41.7,30.02,ESE,112,2.8,3.5,33,0.00,BKN,,0.00,WeatherDisplay:10.37,2013-10-03 18:28:00,
2013-10-03 14:33:00,72.3,43.8,30.02,ESE,112,2.7,3.5,36,0.00,BKN,,0.00,WeatherDisplay:10.37,2013-10-03 18:33:00,
2013-10-03 14:38:00,72.3,45.3,30.02,SE,135,0.5,2.3,38,0.00,BKN,,0.00,WeatherDisplay:10.37,2013-10-03 18:38:00,
2013-10-03 14:43:00,71.8,44.1,30.02,East,90,2.7,3.5,37,0.00,BKN,,0.00,WeatherDisplay:10.37,2013-10-03 18:43:00,
2013-10-03 14:48:00,71.8,44.8,30.02,NNW,338,1.8,2.3,38,0.00,BKN,,0.00,WeatherDisplay:10.37,2013-10-03 18:48:00,
2013-10-03 14:53:00,71.4,44.5,30.03,ESE,112,3.0,3.5,38,0.00,BKN,,0.00,WeatherDisplay:10.37,2013-10-03 18:53:00,
2013-10-03 14:58:00,71.2,45.0,30.03,ESE,112,0.8,1.7,39,0.00,BKN,,0.00,WeatherDisplay:10.37,2013-10-03 18:58:00,
2013-10-03 15:03:00,71.1,44.2,30.02,East,90,2.1,3.5,38,0.00,OVC,,0.00,WeatherDisplay:10.37,2013-10-03 19:03:00,
2013-10-03 15:08:00,71.1,45.5,30.02,ESE,112,1.4,2.3,40,0.00,OVC,,0.00,WeatherDisplay:10.37,2013-10-03 19:08:00,
2013-10-03 15:13:00,71.2,45.6,30.02,ESE,112,2.2,2.7,40,0.00,OVC,,0.00,WeatherDisplay:10.37,2013-10-03 19:13:00,
2013-10-03 15:18:00,71.2,45.6,30.02,SE,135,3.9,4.6,40,0.00,OVC,,0.00,WeatherDisplay:10.37,2013-10-03 19:18:00,
2013-10-03 15:23:00,71.2,46.3,30.02,NE,45,2.4,3.5,41,0.00,OVC,,0.00,WeatherDisplay:10.37,2013-10-03 19:23:00,
2013-10-03 15:28:00,71.2,46.3,30.01,ESE,112,1.9,2.3,41,0.00,OVC,,0.00,WeatherDisplay:10.37,2013-10-03 19:28:00,
2013-10-03 15:33:00,71.2,46.9,30.01,ESE,112,3.2,4.6,42,0.00,OVC,,0.00,WeatherDisplay:10.37,2013-10-03 19:33:00,
2013-10-03 15:38:00,71.2,46.3,30.01,ESE,112,2.6,3.5,41,0.00,OVC,,0.00,WeatherDisplay:10.37,2013-10-03 19:38:00,
2013-10-03 15:43:00,71.2,46.9,30.01,ESE,112,2.6,3.5,42,0.00,OVC,,0.00,WeatherDisplay:10.37,2013-10-03 19:43:00,
2013-10-03 15:48:00,71.4,47.1,30.01,SSE,158,3.1,4.6,42,0.00,OVC,,0.00,WeatherDisplay:10.37,2013-10-03 19:48:00,
2013-10-03 15:53:00,72.5,47.5,30.00,NNE,22,2.8,4.6,41,0.00,OVC,,0.00,WeatherDisplay:10.37,2013-10-03 19:53:00,
2013-10-03 15:58:00,74.3,46.3,30.00,ESE,112,4.8,6.9,37,0.00,OVC,,0.00,WeatherDisplay:10.37,2013-10-03 19:58:00,
2013-10-03 16:03:00,74.5,46.5,30.00,ESE,112,5.9,7.3,37,0.00,OVC,,0.00,WeatherDisplay:10.37,2013-10-03 20:03:00,
2013-10-03 16:08:00,74.1,45.4,30.00,ENE,68,4.5,6.3,36,0.00,OVC,,0.00,WeatherDisplay:10.37,2013-10-03 20:08:00,
2013-10-03 16:13:00,73.2,45.4,30.00,SSE,158,4.2,7.8,37,0.00,OVC,,0.00,WeatherDisplay:10.37,2013-10-03 20:13:00,
2013-10-03 16:18:00,73.0,45.2,30.00,East,90,3.6,4.6,37,0.00,OVC,,0.00,WeatherDisplay:10.37,2013-10-03 20:18:00,
2013-10-03 16:23:00,72.5,44.7,30.00,NE,45,6.4,8.8,37,0.00,OVC,,0.00,WeatherDisplay:10.37,2013-10-03 20:23:00,
2013-10-03 16:28:00,72.3,45.3,30.00,East,90,5.2,5.8,38,0.00,OVC,,0.00,WeatherDisplay:10.37,2013-10-03 20:28:00,
2013-10-03 16:33:00,72.0,45.0,30.00,ESE,112,4.6,5.8,38,0.00,OVC,,0.00,WeatherDisplay:10.37,2013-10-03 20:33:00,
2013-10-03 16:38:00,71.8,45.5,30.00,ESE,112,4.1,5.8,39,0.00,OVC,,0.00,WeatherDisplay:10.37,2013-10-03 20:38:00,
2013-10-03 16:43:00,71.8,45.5,30.00,SE,135,5.2,5.8,39,0.00,OVC,,0.00,WeatherDisplay:10.37,2013-10-03 20:43:00,
2013-10-03 16:48:00,72.0,45.7,30.00,ESE,112,3.4,4.6,39,0.00,OVC,,0.00,WeatherDisplay:10.37,2013-10-03 20:48:00,
2013-10-03 16:53:00,72.0,45.7,30.00,South,180,5.1,6.8,39,0.00,OVC,,0.00,WeatherDisplay:10.37,2013-10-03 20:53:00,
2013-10-03 16:58:00,71.8,46.8,30.00,ESE,112,3.5,3.7,41,0.00,OVC,,0.00,WeatherDisplay:10.37,2013-10-03 20:58:00,
2013-10-03 17:03:00,72.1,47.1,30.00,NE,45,0.9,2.3,41,0.00,BKN,,0.00,WeatherDisplay:10.37,2013-10-03 21:03:00,
2013-10-03 17:08:00,71.8,46.2,30.00,NNE,22,3.7,4.2,40,0.00,BKN,,0.00,WeatherDisplay:10.37,2013-10-03 21:08:00,
2013-10-03 17:13:00,71.8,46.2,30.00,ESE,112,4.6,5.8,40,0.00,BKN,,0.00,WeatherDisplay:10.37,2013-10-03 21:13:00,
2013-10-03 17:18:00,71.2,45.6,30.00,ENE,68,5.0,5.8,40,0.00,BKN,,0.00,WeatherDisplay:10.37,2013-10-03 21:18:00,
2013-10-03 17:23:00,71.1,46.8,30.00,East,90,3.1,4.2,42,0.00,BKN,,0.00,WeatherDisplay:10.37,2013-10-03 21:23:00,
2013-10-03 17:28:00,71.1,46.2,30.00,ENE,68,3.3,5.8,41,0.00,BKN,,0.00,WeatherDisplay:10.37,2013-10-03 21:28:00,
2013-10-03 17:33:00,71.1,47.5,30.00,ESE,112,2.2,2.3,43,0.00,BKN,,0.00,WeatherDisplay:10.37,2013-10-03 21:33:00,
2013-10-03 17:38:00,70.9,47.3,29.99,ESE,112,2.4,3.7,43,0.00,BKN,,0.00,WeatherDisplay:10.37,2013-10-03 21:38:00,
2013-10-03 17:43:00,70.7,47.1,29.99,ESE,112,3.3,3.5,43,0.00,BKN,,0.00,WeatherDisplay:10.37,2013-10-03 21:43:00,
2013-10-03 17:48:00,70.3,47.3,29.99,ESE,112,3.4,3.5,44,0.00,BKN,,0.00,WeatherDisplay:10.37,2013-10-03 21:48:00,
2013-10-03 17:53:00,70.3,47.9,30.00,ESE,112,2.5,3.5,45,0.00,BKN,,0.00,WeatherDisplay:10.37,2013-10-03 21:53:00,
2013-10-03 17:58:00,70.2,48.4,30.00,ESE,112,2.2,3.5,46,0.00,BKN,,0.00,WeatherDisplay:10.37,2013-10-03 21:58:00,
2013-10-03 18:03:00,70.0,48.3,30.00,ESE,112,2.5,3.5,46,0.00,BKN,,0.00,WeatherDisplay:10.37,2013-10-03 22:03:00,
2013-10-03 18:08:00,69.8,48.1,30.00,ESE,112,0.2,1.1,46,0.00,BKN,,0.00,WeatherDisplay:10.37,2013-10-03 22:08:00,
2013-10-03 18:13:00,69.3,48.8,30.00,ESE,112,0.0,0.0,48,0.00,BKN,,0.00,WeatherDisplay:10.37,2013-10-03 22:13:00,
2013-10-03 18:18:00,68.7,48.2,30.00,ESE,112,1.0,2.3,48,0.00,BKN,,0.00,WeatherDisplay:10.37,2013-10-03 22:18:00,
2013-10-03 18:23:00,68.4,49.0,30.00,East,90,2.1,2.7,50,0.00,BKN,,0.00,WeatherDisplay:10.37,2013-10-03 22:23:00,
2013-10-03 18:28:00,68.0,48.7,29.99,SE,135,1.6,2.3,50,0.00,BKN,,0.00,WeatherDisplay:10.37,2013-10-03 22:28:00,
2013-10-03 18:33:00,67.6,48.8,29.99,ESE,112,1.6,2.7,51,0.00,BKN,,0.00,WeatherDisplay:10.37,2013-10-03 22:33:00,
2013-10-03 18:38:00,67.5,49.3,29.99,SSE,158,1.4,2.3,52,0.00,BKN,,0.00,WeatherDisplay:10.37,2013-10-03 22:38:00,
2013-10-03 18:43:00,67.1,48.9,29.99,ESE,112,0.0,0.0,52,0.00,BKN,,0.00,WeatherDisplay:10.37,2013-10-03 22:43:00,
2013-10-03 18:48:00,67.1,49.4,29.99,SE,135,0.0,0.0,53,0.00,BKN,,0.00,WeatherDisplay:10.37,2013-10-03 22:48:00,
2013-10-03 18:53:00,66.7,49.5,30.00,ESE,112,1.9,2.3,54,0.00,BKN,,0.00,WeatherDisplay:10.37,2013-10-03 22:53:00,
2013-10-03 18:58:00,66.7,49.5,30.00,ESE,112,0.9,1.1,54,0.00,BKN,,0.00,WeatherDisplay:10.37,2013-10-03 22:58:00,
2013-10-03 19:03:00,66.6,49.9,30.00,ESE,112,0.4,1.1,55,0.00,BKN,,0.00,WeatherDisplay:10.37,2013-10-03 23:03:00,
2013-10-03 19:08:00,66.4,49.7,30.00,ESE,112,0.7,1.7,55,0.00,BKN,,0.00,WeatherDisplay:10.37,2013-10-03 23:08:00,
2013-10-03 19:13:00,66.2,50.0,30.00,ESE,112,1.0,2.3,56,0.00,BKN,,0.00,WeatherDisplay:10.37,2013-10-03 23:13:00,
2013-10-03 19:18:00,66.2,50.0,30.00,ENE,68,1.7,2.2,56,0.00,BKN,,0.00,WeatherDisplay:10.37,2013-10-03 23:18:00,
2013-10-03 19:23:00,65.8,49.7,30.00,SSE,158,1.9,2.3,56,0.00,BKN,,0.00,WeatherDisplay:10.37,2013-10-03 23:23:00,
2013-10-03 19:28:00,65.7,50.0,30.00,SSE,158,0.7,1.1,57,0.00,BKN,,0.00,WeatherDisplay:10.37,2013-10-03 23:28:00,
2013-10-03 19:33:00,65.5,49.9,30.00,SE,135,0.0,1.1,57,0.00,BKN,,0.00,WeatherDisplay:10.37,2013-10-03 23:33:00,
2013-10-03 19:38:00,65.5,49.9,30.00,WNW,292,0.0,0.0,57,0.00,BKN,,0.00,WeatherDisplay:10.37,2013-10-03 23:38:00,
2013-10-03 19:43:00,65.3,50.1,30.00,ENE,68,0.0,0.0,58,0.00,BKN,,0.00,WeatherDisplay:10.37,2013-10-03 23:43:00,
2013-10-03 19:48:00,65.1,50.4,30.00,East,90,1.2,1.2,59,0.00,BKN,,0.00,WeatherDisplay:10.37,2013-10-03 23:48:00,
2013-10-03 19:53:00,65.1,50.4,30.00,East,90,1.0,1.1,59,0.00,BKN,,0.00,WeatherDisplay:10.37,2013-10-03 23:53:00,
2013-10-03 19:58:00,64.8,50.6,30.00,ESE,112,1.9,2.7,60,0.00,BKN,,0.00,WeatherDisplay:10.37,2013-10-03 23:58:00,
2013-10-03 20:03:00,64.8,50.6,30.00,ESE,112,2.6,2.7,60,0.00,BKN,,0.00,WeatherDisplay:10.37,2013-10-04 00:03:00,
2013-10-03 20:08:00,64.8,50.6,30.00,ESE,112,2.0,2.3,60,0.00,BKN,,0.00,WeatherDisplay:10.37,2013-10-04 00:08:00,
2013-10-03 20:13:00,64.8,50.6,30.00,ESE,112,2.2,2.3,60,0.00,BKN,,0.00,WeatherDisplay:10.37,2013-10-04 00:13:00,
2013-10-03 20:18:00,64.8,50.6,30.00,ESE,112,1.9,2.3,60,0.00,BKN,,0.00,WeatherDisplay:10.37,2013-10-04 00:18:00,
2013-10-03 20:23:00,64.8,50.6,30.00,ESE,112,2.6,3.7,60,0.00,BKN,,0.00,WeatherDisplay:10.37,2013-10-04 00:23:00,
2013-10-03 20:28:00,64.8,51.0,30.00,ESE,112,2.8,3.5,61,0.00,BKN,,0.00,WeatherDisplay:10.37,2013-10-04 00:28:00,
2013-10-03 20:33:00,64.6,50.8,30.00,ESE,112,2.5,2.5,61,0.00,BKN,,0.00,WeatherDisplay:10.37,2013-10-04 00:33:00,
2013-10-03 20:38:00,64.6,50.8,30.00,ESE,112,3.0,3.5,61,0.00,BKN,,0.00,WeatherDisplay:10.37,2013-10-04 00:38:00,
2013-10-03 20:43:00,64.6,50.8,30.00,ESE,112,2.7,3.2,61,0.00,BKN,,0.00,WeatherDisplay:10.37,2013-10-04 00:43:00,
2013-10-03 20:48:00,64.6,50.8,30.00,ESE,112,2.8,3.7,61,0.00,BKN,,0.00,WeatherDisplay:10.37,2013-10-04 00:48:00,
2013-10-03 20:53:00,64.6,50.8,30.00,South,180,2.3,2.3,61,0.00,BKN,,0.00,WeatherDisplay:10.37,2013-10-04 00:53:00,
2013-10-03 20:58:00,64.4,50.7,30.00,ESE,112,2.7,2.7,61,0.00,BKN,,0.00,WeatherDisplay:10.37,2013-10-04 00:58:00,
2013-10-03 21:03:00,64.4,51.1,30.00,ESE,112,2.2,3.5,62,0.00,BKN,,0.00,WeatherDisplay:10.37,2013-10-04 01:03:00,
2013-10-03 21:08:00,64.2,50.9,30.00,ESE,112,2.1,2.7,62,0.00,BKN,,0.00,WeatherDisplay:10.37,2013-10-04 01:08:00,
2013-10-03 21:13:00,64.2,50.9,30.00,SE,135,2.1,2.3,62,0.00,BKN,,0.00,WeatherDisplay:10.37,2013-10-04 01:13:00,
2013-10-03 21:18:00,64.2,50.9,30.00,SE,135,3.2,3.5,62,0.00,BKN,,0.00,WeatherDisplay:10.37,2013-10-04 01:18:00,
2013-10-03 21:23:00,64.2,50.9,30.00,ESE,112,2.8,3.5,62,0.00,BKN,,0.00,WeatherDisplay:10.37,2013-10-04 01:23:00,
2013-10-03 21:28:00,64.2,51.3,30.00,ENE,68,1.9,2.3,63,0.00,BKN,,0.00,WeatherDisplay:10.37,2013-10-04 01:28:00,
2013-10-03 21:33:00,64.2,51.3,30.00,ESE,112,2.1,2.7,63,0.00,BKN,,0.00,WeatherDisplay:10.37,2013-10-04 01:33:00,
2013-10-03 21:38:00,64.2,51.8,30.00,ESE,112,2.5,3.2,64,0.00,BKN,,0.00,WeatherDisplay:10.37,2013-10-04 01:38:00,
2013-10-03 21:43:00,64.2,51.8,30.00,East,90,2.2,2.7,64,0.00,BKN,,0.00,WeatherDisplay:10.37,2013-10-04 01:43:00,
2013-10-03 21:48:00,64.2,51.8,30.00,ESE,112,2.8,3.5,64,0.00,BKN,,0.00,WeatherDisplay:10.37,2013-10-04 01:48:00,
2013-10-03 21:53:00,64.0,51.6,30.00,SSE,158,1.3,2.3,64,0.00,BKN,,0.00,WeatherDisplay:10.37,2013-10-04 01:53:00,
2013-10-03 21:58:00,64.0,51.6,30.00,South,180,1.8,2.3,64,0.00,BKN,,0.00,WeatherDisplay:10.37,2013-10-04 01:58:00,
2013-10-03 22:03:00,63.9,52.3,30.01,SSE,158,1.5,2.3,66,0.00,BKN,,0.00,WeatherDisplay:10.37,2013-10-04 02:03:00,
2013-10-03 22:08:00,63.5,52.7,30.01,SSE,158,1.4,2.3,68,0.00,BKN,,0.00,WeatherDisplay:10.37,2013-10-04 02:08:00,
2013-10-03 22:13:00,63.1,53.5,30.01,ESE,112,2.2,2.7,71,0.00,OVC,,0.00,WeatherDisplay:10.37,2013-10-04 02:13:00,
2013-10-03 22:18:00,62.8,54.0,30.00,East,90,1.9,2.3,73,0.00,OVC,,0.00,WeatherDisplay:10.37,2013-10-04 02:18:00,
2013-10-03 22:23:00,62.6,53.8,30.00,ESE,112,0.0,0.0,73,0.00,OVC,,0.00,WeatherDisplay:10.37,2013-10-04 02:23:00,
2013-10-03 22:28:00,62.4,54.0,30.00,WNW,292,0.0,0.0,74,0.00,OVC,,0.00,WeatherDisplay:10.37,2013-10-04 02:28:00,
2013-10-03 22:33:00,62.2,54.2,30.00,NNW,338,0.0,0.0,75,0.00,-RA,,0.00,WeatherDisplay:10.37,2013-10-04 02:33:00,
2013-10-03 22:38:00,62.1,54.1,30.00,SSW,202,0.0,0.0,75,0.00,-RA,,0.00,WeatherDisplay:10.37,2013-10-04 02:38:00,
2013-10-03 22:43:00,61.9,53.9,30.00,SSW,202,0.0,0.0,75,0.00,-RA,,0.00,WeatherDisplay:10.37,2013-10-04 02:43:00,
2013-10-03 22:48:00,61.7,53.7,30.00,SW,225,0.0,0.0,75,0.00,-RA,,0.00,WeatherDisplay:10.37,2013-10-04 02:48:00,
2013-10-03 22:53:00,61.5,54.2,30.02,SW,225,0.0,0.0,77,0.00,-RA,,0.00,WeatherDisplay:10.37,2013-10-04 02:53:00,
2013-10-03 22:58:00,61.5,54.2,30.02,SE,135,0.0,0.0,77,0.00,-RA,,0.00,WeatherDisplay:10.37,2013-10-04 02:58:00,
2013-10-03 23:03:00,61.5,56.0,30.01,SSE,158,0.0,0.0,82,0.00,-RA,,0.00,WeatherDisplay:10.37,2013-10-04 03:03:00,
2013-10-03 23:08:00,61.5,56.3,30.01,ESE,112,2.0,2.2,83,0.00,-RA,,0.00,WeatherDisplay:10.37,2013-10-04 03:08:00,
2013-10-03 23:13:00,61.3,56.1,30.01,SE,135,0.0,0.0,83,0.00,OVC,,0.00,WeatherDisplay:10.37,2013-10-04 03:13:00,
2013-10-03 23:18:00,61.2,56.0,30.01,ESE,112,0.0,0.0,83,0.00,OVC,,0.00,WeatherDisplay:10.37,2013-10-04 03:18:00,
2013-10-03 23:23:00,61.2,56.0,30.01,SSE,158,0.0,0.0,83,0.00,OVC,,0.00,WeatherDisplay:10.37,2013-10-04 03:23:00,
2013-10-03 23:28:00,61.2,56.0,30.01,SE,135,0.0,0.0,83,0.00,OVC,,0.00,WeatherDisplay:10.37,2013-10-04 03:28:00,
2013-10-03 23:33:00,61.0,56.1,30.01,SE,135,1.4,1.7,84,0.00,OVC,,0.00,WeatherDisplay:10.37,2013-10-04 03:33:00,
2013-10-03 23:38:00,60.8,55.9,30.01,SE,135,0.0,0.0,84,0.00,OVC,,0.00,WeatherDisplay:10.37,2013-10-04 03:38:00,
2013-10-03 23:43:00,60.8,56.3,30.01,SSE,158,2.2,2.3,85,0.00,OVC,,0.00,WeatherDisplay:10.37,2013-10-04 03:43:00,
2013-10-03 23:48:00,60.8,56.6,30.01,ESE,112,2.3,2.3,86,0.00,OVC,,0.00,WeatherDisplay:10.37,2013-10-04 03:48:00,
2013-10-03 23:53:00,60.8,56.6,30.00,SSE,158,0.0,0.0,86,0.00,OVC,,0.00,WeatherDisplay:10.37,2013-10-04 03:53:00,
2013-10-03 23:59:00,60.8,57.5,30.00,SE,135,1.5,2.7,89,0.00,OVC,,0.00,WeatherDisplay:10.37,2013-10-04 03:59:00,